sensor_id;sensor_type;location;lat;lon;timestamp;temperature;humidity
11304;DHT22;5707;49.588;12.148;2022-12-19T00:01:06;-8.00;99.90
11304;DHT22;5707;49.588;12.148;2022-12-19T00:03:33;-8.00;99.90
11304;DHT22;5707;49.588;12.148;2022-12-19T00:06:03;-8.00;99.90
11304;DHT22;5707;49.588;12.148;2022-12-19T00:08:32;-8.00;99.90
11304;DHT22;5707;49.588;12.148;2022-12-19T00:10:59;-8.00;99.90
11304;DHT22;5707;49.588;12.148;2022-12-19T00:13:25;-8.00;99.90
11304;DHT22;5707;49.588;12.148;2022-12-19T00:15:52;-7.90;99.90
11304;DHT22;5707;49.588;12.148;2022-12-19T00:18:18;-7.90;99.90
11304;DHT22;5707;49.588;12.148;2022-12-19T00:20:43;-7.80;99.90
11304;DHT22;5707;49.588;12.148;2022-12-19T00:23:09;-7.80;99.90
11304;DHT22;5707;49.588;12.148;2022-12-19T00:25:34;-7.80;99.90
11304;DHT22;5707;49.588;12.148;2022-12-19T00:28:00;-7.80;99.90
11304;DHT22;5707;49.588;12.148;2022-12-19T00:30:25;-7.80;99.90
11304;DHT22;5707;49.588;12.148;2022-12-19T00:32:51;-7.70;99.90
11304;DHT22;5707;49.588;12.148;2022-12-19T00:35:16;-7.70;99.90
11304;DHT22;5707;49.588;12.148;2022-12-19T00:37:42;-7.70;99.90
11304;DHT22;5707;49.588;12.148;2022-12-19T00:40:08;-7.70;99.90
11304;DHT22;5707;49.588;12.148;2022-12-19T00:42:34;-7.70;99.90
11304;DHT22;5707;49.588;12.148;2022-12-19T00:44:59;-7.70;99.90
11304;DHT22;5707;49.588;12.148;2022-12-19T00:47:28;-7.80;99.90
11304;DHT22;5707;49.588;12.148;2022-12-19T00:49:53;-7.90;99.90
11304;DHT22;5707;49.588;12.148;2022-12-19T00:52:19;-8.00;99.90
11304;DHT22;5707;49.588;12.148;2022-12-19T00:54:44;-8.20;99.90
11304;DHT22;5707;49.588;12.148;2022-12-19T00:57:10;-8.40;99.90
11304;DHT22;5707;49.588;12.148;2022-12-19T00:59:35;-8.50;99.90
11304;DHT22;5707;49.588;12.148;2022-12-19T01:02:01;-8.60;99.90
11304;DHT22;5707;49.588;12.148;2022-12-19T01:04:26;-8.70;99.90
11304;DHT22;5707;49.588;12.148;2022-12-19T01:06:52;-8.70;99.90
11304;DHT22;5707;49.588;12.148;2022-12-19T01:09:18;-8.70;99.90
11304;DHT22;5707;49.588;12.148;2022-12-19T01:11:45;-8.70;99.90
11304;DHT22;5707;49.588;12.148;2022-12-19T01:14:30;-8.80;99.90
11304;DHT22;5707;49.588;12.148;2022-12-19T01:16:55;-8.80;99.90
11304;DHT22;5707;49.588;12.148;2022-12-19T01:19:21;-8.90;99.90
11304;DHT22;5707;49.588;12.148;2022-12-19T01:21:47;-9.00;99.90
11304;DHT22;5707;49.588;12.148;2022-12-19T01:24:12;-9.10;99.90
11304;DHT22;5707;49.588;12.148;2022-12-19T01:26:38;-9.20;99.90
11304;DHT22;5707;49.588;12.148;2022-12-19T01:29:04;-9.20;99.90
11304;DHT22;5707;49.588;12.148;2022-12-19T01:31:29;-9.30;99.90
11304;DHT22;5707;49.588;12.148;2022-12-19T01:33:55;-9.30;99.90
11304;DHT22;5707;49.588;12.148;2022-12-19T01:36:20;-9.30;99.90
11304;DHT22;5707;49.588;12.148;2022-12-19T01:38:46;-9.40;99.90
11304;DHT22;5707;49.588;12.148;2022-12-19T01:41:11;-9.40;99.90
11304;DHT22;5707;49.588;12.148;2022-12-19T01:43:59;-9.40;99.90
11304;DHT22;5707;49.588;12.148;2022-12-19T01:46:34;-9.30;99.90
11304;DHT22;5707;49.588;12.148;2022-12-19T01:49:01;-9.30;99.90
11304;DHT22;5707;49.588;12.148;2022-12-19T01:51:35;-9.20;99.90
11304;DHT22;5707;49.588;12.148;2022-12-19T01:54:07;-9.20;99.90
11304;DHT22;5707;49.588;12.148;2022-12-19T01:56:37;-9.10;99.90
11304;DHT22;5707;49.588;12.148;2022-12-19T01:59:08;-9.00;99.90
11304;DHT22;5707;49.588;12.148;2022-12-19T02:01:44;-8.80;99.90
11304;DHT22;5707;49.588;12.148;2022-12-19T02:04:10;-8.70;99.90
11304;DHT22;5707;49.588;12.148;2022-12-19T02:06:39;-8.60;99.90
11304;DHT22;5707;49.588;12.148;2022-12-19T02:09:07;-8.50;99.90
11304;DHT22;5707;49.588;12.148;2022-12-19T02:11:32;-8.30;99.90
11304;DHT22;5707;49.588;12.148;2022-12-19T02:13:58;-8.20;99.90
11304;DHT22;5707;49.588;12.148;2022-12-19T02:16:42;-8.10;99.90
11304;DHT22;5707;49.588;12.148;2022-12-19T02:22:16;-8.00;99.90
11304;DHT22;5707;49.588;12.148;2022-12-19T02:25:02;-8.00;99.90
11304;DHT22;5707;49.588;12.148;2022-12-19T02:27:58;-8.00;99.90
11304;DHT22;5707;49.588;12.148;2022-12-19T02:30:55;-8.00;99.90
11304;DHT22;5707;49.588;12.148;2022-12-19T02:33:41;-8.00;99.90
11304;DHT22;5707;49.588;12.148;2022-12-19T02:36:15;-8.00;99.90
11304;DHT22;5707;49.588;12.148;2022-12-19T02:39:09;-7.90;99.90
11304;DHT22;5707;49.588;12.148;2022-12-19T02:41:45;-7.80;99.90
11304;DHT22;5707;49.588;12.148;2022-12-19T02:44:19;-7.80;99.90
11304;DHT22;5707;49.588;12.148;2022-12-19T02:46:47;-7.70;99.90
11304;DHT22;5707;49.588;12.148;2022-12-19T02:49:14;-7.70;99.90
11304;DHT22;5707;49.588;12.148;2022-12-19T02:51:40;-7.60;99.90
11304;DHT22;5707;49.588;12.148;2022-12-19T02:54:05;-7.60;99.90
11304;DHT22;5707;49.588;12.148;2022-12-19T02:56:45;-7.60;99.90
11304;DHT22;5707;49.588;12.148;2022-12-19T03:07:32;-7.60;99.90
11304;DHT22;5707;49.588;12.148;2022-12-19T03:12:53;-7.60;99.90
11304;DHT22;5707;49.588;12.148;2022-12-19T03:15:21;-7.60;99.90
11304;DHT22;5707;49.588;12.148;2022-12-19T03:17:47;-7.50;99.90
11304;DHT22;5707;49.588;12.148;2022-12-19T03:22:53;-7.50;99.90
11304;DHT22;5707;49.588;12.148;2022-12-19T03:25:19;-7.40;99.90
11304;DHT22;5707;49.588;12.148;2022-12-19T03:27:47;-7.40;99.90
11304;DHT22;5707;49.588;12.148;2022-12-19T03:30:14;-7.40;99.90
11304;DHT22;5707;49.588;12.148;2022-12-19T03:32:42;-7.50;99.90
11304;DHT22;5707;49.588;12.148;2022-12-19T03:35:19;-7.40;99.90
11304;DHT22;5707;49.588;12.148;2022-12-19T03:37:48;-7.50;99.90
11304;DHT22;5707;49.588;12.148;2022-12-19T03:40:18;-7.40;99.90
11304;DHT22;5707;49.588;12.148;2022-12-19T03:42:46;-7.40;99.90
11304;DHT22;5707;49.588;12.148;2022-12-19T03:45:47;-7.40;99.90
11304;DHT22;5707;49.588;12.148;2022-12-19T03:51:35;-7.30;99.90
11304;DHT22;5707;49.588;12.148;2022-12-19T03:54:22;-7.30;99.90
11304;DHT22;5707;49.588;12.148;2022-12-19T03:56:53;-7.30;99.90
11304;DHT22;5707;49.588;12.148;2022-12-19T04:02:00;-7.20;99.90
11304;DHT22;5707;49.588;12.148;2022-12-19T04:04:26;-7.10;99.90
11304;DHT22;5707;49.588;12.148;2022-12-19T04:06:53;-7.10;99.90
11304;DHT22;5707;49.588;12.148;2022-12-19T04:09:21;-7.00;99.90
11304;DHT22;5707;49.588;12.148;2022-12-19T04:11:53;-7.00;99.90
11304;DHT22;5707;49.588;12.148;2022-12-19T04:14:27;-6.90;99.90
11304;DHT22;5707;49.588;12.148;2022-12-19T04:19:54;-6.90;99.90
11304;DHT22;5707;49.588;12.148;2022-12-19T04:22:36;-6.80;99.90
11304;DHT22;5707;49.588;12.148;2022-12-19T04:25:06;-6.80;99.90
11304;DHT22;5707;49.588;12.148;2022-12-19T04:27:36;-6.70;99.90
11304;DHT22;5707;49.588;12.148;2022-12-19T04:30:04;-6.70;99.90
11304;DHT22;5707;49.588;12.148;2022-12-19T04:32:33;-6.70;99.90
11304;DHT22;5707;49.588;12.148;2022-12-19T04:34:59;-6.60;99.90
11304;DHT22;5707;49.588;12.148;2022-12-19T04:37:25;-6.60;99.90
11304;DHT22;5707;49.588;12.148;2022-12-19T04:39:50;-6.70;99.90
11304;DHT22;5707;49.588;12.148;2022-12-19T04:42:16;-6.70;99.90
11304;DHT22;5707;49.588;12.148;2022-12-19T04:44:41;-6.60;99.90
11304;DHT22;5707;49.588;12.148;2022-12-19T04:47:07;-6.60;99.90
11304;DHT22;5707;49.588;12.148;2022-12-19T04:49:32;-6.60;99.90
11304;DHT22;5707;49.588;12.148;2022-12-19T04:51:58;-6.60;99.90
11304;DHT22;5707;49.588;12.148;2022-12-19T04:54:24;-6.50;99.90
11304;DHT22;5707;49.588;12.148;2022-12-19T04:56:49;-6.50;99.90
11304;DHT22;5707;49.588;12.148;2022-12-19T04:59:16;-6.40;99.90
11304;DHT22;5707;49.588;12.148;2022-12-19T05:01:42;-6.40;99.90
11304;DHT22;5707;49.588;12.148;2022-12-19T05:04:07;-6.30;99.90
11304;DHT22;5707;49.588;12.148;2022-12-19T05:06:33;-6.30;99.90
11304;DHT22;5707;49.588;12.148;2022-12-19T05:08:58;-6.20;99.90
11304;DHT22;5707;49.588;12.148;2022-12-19T05:11:24;-6.10;99.90
11304;DHT22;5707;49.588;12.148;2022-12-19T05:13:49;-6.10;99.90
11304;DHT22;5707;49.588;12.148;2022-12-19T05:16:16;-6.20;99.90
11304;DHT22;5707;49.588;12.148;2022-12-19T05:18:42;-6.10;99.90
11304;DHT22;5707;49.588;12.148;2022-12-19T05:21:07;-6.10;99.90
11304;DHT22;5707;49.588;12.148;2022-12-19T05:23:34;-6.10;99.90
11304;DHT22;5707;49.588;12.148;2022-12-19T05:26:00;-6.10;99.90
11304;DHT22;5707;49.588;12.148;2022-12-19T05:28:27;-6.00;99.90
11304;DHT22;5707;49.588;12.148;2022-12-19T05:31:08;-6.00;99.90
11304;DHT22;5707;49.588;12.148;2022-12-19T05:33:34;-6.00;99.90
11304;DHT22;5707;49.588;12.148;2022-12-19T05:36:01;-6.00;99.90
11304;DHT22;5707;49.588;12.148;2022-12-19T05:38:27;-6.00;99.90
11304;DHT22;5707;49.588;12.148;2022-12-19T05:40:53;-6.00;99.90
11304;DHT22;5707;49.588;12.148;2022-12-19T05:43:19;-6.00;99.90
11304;DHT22;5707;49.588;12.148;2022-12-19T05:45:44;-5.90;99.90
11304;DHT22;5707;49.588;12.148;2022-12-19T05:48:10;-5.70;99.90
11304;DHT22;5707;49.588;12.148;2022-12-19T05:50:35;-5.60;99.90
11304;DHT22;5707;49.588;12.148;2022-12-19T05:53:01;-5.50;99.90
11304;DHT22;5707;49.588;12.148;2022-12-19T05:55:26;-5.40;99.90
11304;DHT22;5707;49.588;12.148;2022-12-19T05:57:52;-5.40;99.90
11304;DHT22;5707;49.588;12.148;2022-12-19T06:00:18;-5.30;99.90
11304;DHT22;5707;49.588;12.148;2022-12-19T06:02:43;-5.30;99.90
11304;DHT22;5707;49.588;12.148;2022-12-19T06:05:10;-5.30;99.90
11304;DHT22;5707;49.588;12.148;2022-12-19T06:07:35;-5.20;99.90
11304;DHT22;5707;49.588;12.148;2022-12-19T06:10:01;-5.20;99.90
11304;DHT22;5707;49.588;12.148;2022-12-19T06:12:27;-5.10;99.90
11304;DHT22;5707;49.588;12.148;2022-12-19T06:14:52;-5.10;99.90
11304;DHT22;5707;49.588;12.148;2022-12-19T06:17:18;-5.20;99.90
11304;DHT22;5707;49.588;12.148;2022-12-19T06:19:43;-5.20;99.90
11304;DHT22;5707;49.588;12.148;2022-12-19T06:22:09;-5.30;99.90
11304;DHT22;5707;49.588;12.148;2022-12-19T06:24:34;-5.40;99.90
11304;DHT22;5707;49.588;12.148;2022-12-19T06:27:00;-5.50;99.90
11304;DHT22;5707;49.588;12.148;2022-12-19T06:29:26;-5.50;99.90
11304;DHT22;5707;49.588;12.148;2022-12-19T06:31:51;-5.50;99.90
11304;DHT22;5707;49.588;12.148;2022-12-19T06:34:17;-5.60;99.90
11304;DHT22;5707;49.588;12.148;2022-12-19T06:36:42;-5.60;99.90
11304;DHT22;5707;49.588;12.148;2022-12-19T06:39:11;-5.60;99.90
11304;DHT22;5707;49.588;12.148;2022-12-19T06:41:36;-5.60;99.90
11304;DHT22;5707;49.588;12.148;2022-12-19T06:44:21;-5.60;99.90
11304;DHT22;5707;49.588;12.148;2022-12-19T06:46:46;-5.50;99.90
11304;DHT22;5707;49.588;12.148;2022-12-19T06:49:12;-5.50;99.90
11304;DHT22;5707;49.588;12.148;2022-12-19T06:51:37;-5.50;99.90
11304;DHT22;5707;49.588;12.148;2022-12-19T06:54:03;-5.50;99.90
11304;DHT22;5707;49.588;12.148;2022-12-19T06:56:36;-5.40;99.90
11304;DHT22;5707;49.588;12.148;2022-12-19T06:59:03;-5.40;99.90
11304;DHT22;5707;49.588;12.148;2022-12-19T07:04:06;-5.30;99.90
11304;DHT22;5707;49.588;12.148;2022-12-19T07:06:35;-5.30;99.90
11304;DHT22;5707;49.588;12.148;2022-12-19T07:09:00;-5.30;99.90
11304;DHT22;5707;49.588;12.148;2022-12-19T07:11:26;-5.20;99.90
11304;DHT22;5707;49.588;12.148;2022-12-19T07:13:51;-5.10;99.90
11304;DHT22;5707;49.588;12.148;2022-12-19T07:16:17;-5.00;99.90
11304;DHT22;5707;49.588;12.148;2022-12-19T07:18:43;-5.00;99.90
11304;DHT22;5707;49.588;12.148;2022-12-19T07:21:09;-4.90;99.90
11304;DHT22;5707;49.588;12.148;2022-12-19T07:23:38;-4.80;99.90
11304;DHT22;5707;49.588;12.148;2022-12-19T07:26:04;-4.80;99.90
11304;DHT22;5707;49.588;12.148;2022-12-19T07:28:32;-4.70;99.90
11304;DHT22;5707;49.588;12.148;2022-12-19T07:30:58;-4.70;99.90
11304;DHT22;5707;49.588;12.148;2022-12-19T07:33:23;-4.60;99.90
11304;DHT22;5707;49.588;12.148;2022-12-19T07:35:49;-4.60;99.90
11304;DHT22;5707;49.588;12.148;2022-12-19T07:38:15;-4.50;99.90
11304;DHT22;5707;49.588;12.148;2022-12-19T07:40:40;-4.40;99.90
11304;DHT22;5707;49.588;12.148;2022-12-19T07:43:06;-4.40;99.90
11304;DHT22;5707;49.588;12.148;2022-12-19T07:45:32;-4.30;99.90
11304;DHT22;5707;49.588;12.148;2022-12-19T07:48:00;-4.20;99.90
11304;DHT22;5707;49.588;12.148;2022-12-19T07:50:26;-4.20;99.90
11304;DHT22;5707;49.588;12.148;2022-12-19T07:52:51;-4.20;99.90
11304;DHT22;5707;49.588;12.148;2022-12-19T07:55:17;-4.20;99.90
11304;DHT22;5707;49.588;12.148;2022-12-19T07:57:42;-4.10;99.90
11304;DHT22;5707;49.588;12.148;2022-12-19T08:00:08;-4.10;99.90
11304;DHT22;5707;49.588;12.148;2022-12-19T08:02:34;-4.00;99.90
11304;DHT22;5707;49.588;12.148;2022-12-19T08:04:59;-3.90;99.90
11304;DHT22;5707;49.588;12.148;2022-12-19T08:07:25;-3.80;99.90
11304;DHT22;5707;49.588;12.148;2022-12-19T08:09:51;-3.70;99.90
11304;DHT22;5707;49.588;12.148;2022-12-19T08:12:16;-3.50;99.90
11304;DHT22;5707;49.588;12.148;2022-12-19T08:14:42;-3.40;99.90
11304;DHT22;5707;49.588;12.148;2022-12-19T08:17:07;-3.20;99.90
11304;DHT22;5707;49.588;12.148;2022-12-19T08:19:34;-3.20;99.90
11304;DHT22;5707;49.588;12.148;2022-12-19T08:21:59;-3.00;99.90
11304;DHT22;5707;49.588;12.148;2022-12-19T08:24:25;-2.90;99.90
11304;DHT22;5707;49.588;12.148;2022-12-19T08:26:50;-2.70;99.90
11304;DHT22;5707;49.588;12.148;2022-12-19T08:29:16;-2.60;99.90
11304;DHT22;5707;49.588;12.148;2022-12-19T08:31:41;-2.50;99.90
11304;DHT22;5707;49.588;12.148;2022-12-19T08:34:07;-2.20;99.90
11304;DHT22;5707;49.588;12.148;2022-12-19T08:36:32;-2.10;99.90
11304;DHT22;5707;49.588;12.148;2022-12-19T08:38:58;-1.90;99.90
11304;DHT22;5707;49.588;12.148;2022-12-19T08:41:24;-1.70;99.90
11304;DHT22;5707;49.588;12.148;2022-12-19T08:43:51;-1.60;99.90
11304;DHT22;5707;49.588;12.148;2022-12-19T08:46:18;-1.60;99.90
11304;DHT22;5707;49.588;12.148;2022-12-19T08:48:44;-1.50;99.90
11304;DHT22;5707;49.588;12.148;2022-12-19T08:51:11;-1.40;99.90
11304;DHT22;5707;49.588;12.148;2022-12-19T08:53:38;-1.40;99.90
11304;DHT22;5707;49.588;12.148;2022-12-19T08:56:16;-1.40;99.90
11304;DHT22;5707;49.588;12.148;2022-12-19T08:58:42;-1.30;99.90
11304;DHT22;5707;49.588;12.148;2022-12-19T09:01:14;-1.20;99.90
11304;DHT22;5707;49.588;12.148;2022-12-19T09:03:41;-1.20;99.90
11304;DHT22;5707;49.588;12.148;2022-12-19T09:06:08;-1.10;99.90
11304;DHT22;5707;49.588;12.148;2022-12-19T09:08:35;-1.00;99.90
11304;DHT22;5707;49.588;12.148;2022-12-19T09:11:05;-0.80;99.90
11304;DHT22;5707;49.588;12.148;2022-12-19T09:13:32;-0.60;99.90
11304;DHT22;5707;49.588;12.148;2022-12-19T09:16:04;-0.60;99.90
11304;DHT22;5707;49.588;12.148;2022-12-19T09:18:30;-0.60;99.90
11304;DHT22;5707;49.588;12.148;2022-12-19T09:20:56;-0.50;99.90
11304;DHT22;5707;49.588;12.148;2022-12-19T09:23:23;-0.40;99.90
11304;DHT22;5707;49.588;12.148;2022-12-19T09:25:52;-0.40;99.90
11304;DHT22;5707;49.588;12.148;2022-12-19T09:28:18;-0.30;99.90
11304;DHT22;5707;49.588;12.148;2022-12-19T09:30:43;-0.10;99.90
11304;DHT22;5707;49.588;12.148;2022-12-19T09:33:09;-0.10;99.90
11304;DHT22;5707;49.588;12.148;2022-12-19T09:35:35;-0.20;99.90
11304;DHT22;5707;49.588;12.148;2022-12-19T09:38:01;-0.20;99.90
11304;DHT22;5707;49.588;12.148;2022-12-19T09:43:23;-0.10;99.90
11304;DHT22;5707;49.588;12.148;2022-12-19T09:46:15;0.00;99.90
11304;DHT22;5707;49.588;12.148;2022-12-19T09:48:42;0.10;99.90
11304;DHT22;5707;49.588;12.148;2022-12-19T09:51:34;0.10;99.90
11304;DHT22;5707;49.588;12.148;2022-12-19T09:54:31;0.10;99.90
11304;DHT22;5707;49.588;12.148;2022-12-19T09:57:03;0.10;99.90
11304;DHT22;5707;49.588;12.148;2022-12-19T09:59:40;0.20;99.90
11304;DHT22;5707;49.588;12.148;2022-12-19T10:05:11;0.40;99.90
11304;DHT22;5707;49.588;12.148;2022-12-19T10:07:38;0.50;99.90
11304;DHT22;5707;49.588;12.148;2022-12-19T10:10:04;0.50;99.90
11304;DHT22;5707;49.588;12.148;2022-12-19T10:15:37;0.90;99.90
11304;DHT22;5707;49.588;12.148;2022-12-19T10:20:41;1.00;99.90
11304;DHT22;5707;49.588;12.148;2022-12-19T10:23:30;1.10;99.90
11304;DHT22;5707;49.588;12.148;2022-12-19T10:26:20;1.20;99.90
11304;DHT22;5707;49.588;12.148;2022-12-19T10:34:17;1.50;99.90
11304;DHT22;5707;49.588;12.148;2022-12-19T10:36:46;1.50;99.90
11304;DHT22;5707;49.588;12.148;2022-12-19T10:39:44;1.60;99.90
11304;DHT22;5707;49.588;12.148;2022-12-19T10:45:08;1.70;99.90
11304;DHT22;5707;49.588;12.148;2022-12-19T10:47:35;1.60;99.90
11304;DHT22;5707;49.588;12.148;2022-12-19T10:50:01;1.50;99.90
11304;DHT22;5707;49.588;12.148;2022-12-19T10:52:49;1.40;99.90
11304;DHT22;5707;49.588;12.148;2022-12-19T10:55:41;1.50;99.90
11304;DHT22;5707;49.588;12.148;2022-12-19T11:00:45;1.70;99.90
11304;DHT22;5707;49.588;12.148;2022-12-19T11:03:12;1.70;99.90
11304;DHT22;5707;49.588;12.148;2022-12-19T11:05:49;1.70;99.90
11304;DHT22;5707;49.588;12.148;2022-12-19T11:08:41;1.70;99.90
11304;DHT22;5707;49.588;12.148;2022-12-19T11:15:59;1.40;99.90
11304;DHT22;5707;49.588;12.148;2022-12-19T11:23:47;1.50;99.90
11304;DHT22;5707;49.588;12.148;2022-12-19T11:29:02;1.50;99.90
11304;DHT22;5707;49.588;12.148;2022-12-19T11:31:28;1.50;99.90
11304;DHT22;5707;49.588;12.148;2022-12-19T11:34:02;1.60;99.90
11304;DHT22;5707;49.588;12.148;2022-12-19T11:36:34;1.70;99.90
11304;DHT22;5707;49.588;12.148;2022-12-19T11:39:01;2.00;99.90
11304;DHT22;5707;49.588;12.148;2022-12-19T11:41:36;2.20;99.90
11304;DHT22;5707;49.588;12.148;2022-12-19T11:44:49;2.30;99.90
11304;DHT22;5707;49.588;12.148;2022-12-19T11:49:47;2.40;99.90
11304;DHT22;5707;49.588;12.148;2022-12-19T11:52:39;2.50;99.90
11304;DHT22;5707;49.588;12.148;2022-12-19T11:57:44;2.80;99.90
11304;DHT22;5707;49.588;12.148;2022-12-19T12:00:12;2.80;99.90
11304;DHT22;5707;49.588;12.148;2022-12-19T12:05:44;2.50;99.90
11304;DHT22;5707;49.588;12.148;2022-12-19T12:11:01;2.50;99.90
11304;DHT22;5707;49.588;12.148;2022-12-19T12:13:39;2.50;99.90
11304;DHT22;5707;49.588;12.148;2022-12-19T12:16:13;2.40;99.90
11304;DHT22;5707;49.588;12.148;2022-12-19T12:21:54;2.60;99.90
11304;DHT22;5707;49.588;12.148;2022-12-19T12:24:57;2.50;99.90
11304;DHT22;5707;49.588;12.148;2022-12-19T12:27:46;2.50;99.90
11304;DHT22;5707;49.588;12.148;2022-12-19T12:30:17;2.20;99.90
11304;DHT22;5707;49.588;12.148;2022-12-19T12:32:51;2.10;99.90
11304;DHT22;5707;49.588;12.148;2022-12-19T12:35:32;2.00;99.90
11304;DHT22;5707;49.588;12.148;2022-12-19T12:41:40;2.00;99.90
11304;DHT22;5707;49.588;12.148;2022-12-19T12:44:26;1.90;99.90
11304;DHT22;5707;49.588;12.148;2022-12-19T12:47:01;1.90;99.90
11304;DHT22;5707;49.588;12.148;2022-12-19T12:49:42;1.90;99.90
11304;DHT22;5707;49.588;12.148;2022-12-19T12:52:14;1.90;99.90
11304;DHT22;5707;49.588;12.148;2022-12-19T12:54:42;1.80;99.90
11304;DHT22;5707;49.588;12.148;2022-12-19T13:02:38;1.60;99.90
11304;DHT22;5707;49.588;12.148;2022-12-19T13:08:25;1.50;99.90
11304;DHT22;5707;49.588;12.148;2022-12-19T13:10:57;1.30;99.90
11304;DHT22;5707;49.588;12.148;2022-12-19T13:13:54;1.20;99.90
11304;DHT22;5707;49.588;12.148;2022-12-19T13:19:21;1.20;99.90
11304;DHT22;5707;49.588;12.148;2022-12-19T13:24:37;1.20;99.90
11304;DHT22;5707;49.588;12.148;2022-12-19T13:27:04;1.20;99.90
11304;DHT22;5707;49.588;12.148;2022-12-19T13:38:18;0.90;99.90
11304;DHT22;5707;49.588;12.148;2022-12-19T13:41:01;0.90;99.90
11304;DHT22;5707;49.588;12.148;2022-12-19T13:43:48;0.90;99.90
11304;DHT22;5707;49.588;12.148;2022-12-19T13:46:29;1.00;99.90
11304;DHT22;5707;49.588;12.148;2022-12-19T13:49:05;1.10;99.90
11304;DHT22;5707;49.588;12.148;2022-12-19T13:51:52;1.00;99.90
11304;DHT22;5707;49.588;12.148;2022-12-19T13:54:20;1.00;99.90
11304;DHT22;5707;49.588;12.148;2022-12-19T13:56:47;0.90;99.90
11304;DHT22;5707;49.588;12.148;2022-12-19T13:59:13;0.70;99.90
11304;DHT22;5707;49.588;12.148;2022-12-19T14:01:39;0.70;99.90
11304;DHT22;5707;49.588;12.148;2022-12-19T14:04:28;0.90;99.90
11304;DHT22;5707;49.588;12.148;2022-12-19T14:07:05;1.00;99.90
11304;DHT22;5707;49.588;12.148;2022-12-19T14:09:44;0.90;99.90
11304;DHT22;5707;49.588;12.148;2022-12-19T14:12:25;0.90;99.90
11304;DHT22;5707;49.588;12.148;2022-12-19T14:15:36;0.90;99.90
11304;DHT22;5707;49.588;12.148;2022-12-19T14:20:40;0.80;99.90
11304;DHT22;5707;49.588;12.148;2022-12-19T14:23:05;0.80;99.90
11304;DHT22;5707;49.588;12.148;2022-12-19T14:25:50;0.80;99.90
11304;DHT22;5707;49.588;12.148;2022-12-19T14:28:21;0.70;99.90
11304;DHT22;5707;49.588;12.148;2022-12-19T14:30:52;0.70;99.90
11304;DHT22;5707;49.588;12.148;2022-12-19T14:33:26;0.60;99.90
11304;DHT22;5707;49.588;12.148;2022-12-19T14:35:54;0.60;99.90
11304;DHT22;5707;49.588;12.148;2022-12-19T14:38:25;0.60;99.90
11304;DHT22;5707;49.588;12.148;2022-12-19T14:40:52;0.60;99.90
11304;DHT22;5707;49.588;12.148;2022-12-19T14:43:27;0.60;99.90
11304;DHT22;5707;49.588;12.148;2022-12-19T14:48:58;0.40;99.90
11304;DHT22;5707;49.588;12.148;2022-12-19T14:59:33;0.30;99.90
11304;DHT22;5707;49.588;12.148;2022-12-19T15:02:17;0.20;99.90
11304;DHT22;5707;49.588;12.148;2022-12-19T15:04:46;0.20;99.90
11304;DHT22;5707;49.588;12.148;2022-12-19T15:07:20;0.20;99.90
11304;DHT22;5707;49.588;12.148;2022-12-19T15:12:22;0.10;99.90
11304;DHT22;5707;49.588;12.148;2022-12-19T15:15:33;0.10;99.90
11304;DHT22;5707;49.588;12.148;2022-12-19T15:18:03;0.10;99.90
11304;DHT22;5707;49.588;12.148;2022-12-19T15:20:28;0.10;99.90
11304;DHT22;5707;49.588;12.148;2022-12-19T15:22:54;0.10;99.90
11304;DHT22;5707;49.588;12.148;2022-12-19T15:25:20;0.10;99.90
11304;DHT22;5707;49.588;12.148;2022-12-19T15:27:45;0.10;99.90
11304;DHT22;5707;49.588;12.148;2022-12-19T15:30:18;0.10;99.90
11304;DHT22;5707;49.588;12.148;2022-12-19T15:32:44;0.10;99.90
11304;DHT22;5707;49.588;12.148;2022-12-19T15:35:14;0.10;99.90
11304;DHT22;5707;49.588;12.148;2022-12-19T15:37:40;0.10;99.90
11304;DHT22;5707;49.588;12.148;2022-12-19T15:40:11;0.10;99.90
11304;DHT22;5707;49.588;12.148;2022-12-19T15:42:38;0.10;99.90
11304;DHT22;5707;49.588;12.148;2022-12-19T15:45:04;0.10;99.90
11304;DHT22;5707;49.588;12.148;2022-12-19T15:47:32;0.10;99.90
11304;DHT22;5707;49.588;12.148;2022-12-19T15:49:58;0.00;99.90
11304;DHT22;5707;49.588;12.148;2022-12-19T15:52:28;0.10;99.90
11304;DHT22;5707;49.588;12.148;2022-12-19T15:54:54;0.10;99.90
11304;DHT22;5707;49.588;12.148;2022-12-19T15:57:37;0.10;99.90
11304;DHT22;5707;49.588;12.148;2022-12-19T16:00:06;0.10;99.90
11304;DHT22;5707;49.588;12.148;2022-12-19T16:02:32;0.10;99.90
11304;DHT22;5707;49.588;12.148;2022-12-19T16:04:58;0.10;99.90
11304;DHT22;5707;49.588;12.148;2022-12-19T16:07:24;0.10;99.90
11304;DHT22;5707;49.588;12.148;2022-12-19T16:09:50;0.20;99.90
11304;DHT22;5707;49.588;12.148;2022-12-19T16:12:25;0.20;99.90
11304;DHT22;5707;49.588;12.148;2022-12-19T16:15:01;0.20;99.90
11304;DHT22;5707;49.588;12.148;2022-12-19T16:17:29;0.20;99.90
11304;DHT22;5707;49.588;12.148;2022-12-19T16:19:55;0.20;99.90
11304;DHT22;5707;49.588;12.148;2022-12-19T16:22:24;0.20;99.90
11304;DHT22;5707;49.588;12.148;2022-12-19T16:24:50;0.20;99.90
11304;DHT22;5707;49.588;12.148;2022-12-19T16:29:48;0.20;99.90
11304;DHT22;5707;49.588;12.148;2022-12-19T16:32:14;0.20;99.90
11304;DHT22;5707;49.588;12.148;2022-12-19T16:34:40;0.10;99.90
11304;DHT22;5707;49.588;12.148;2022-12-19T16:37:06;0.00;99.90
11304;DHT22;5707;49.588;12.148;2022-12-19T16:39:32;-0.10;99.90
11304;DHT22;5707;49.588;12.148;2022-12-19T16:41:57;-0.10;99.90
11304;DHT22;5707;49.588;12.148;2022-12-19T16:44:23;-0.30;99.90
11304;DHT22;5707;49.588;12.148;2022-12-19T16:46:50;-0.30;99.90
11304;DHT22;5707;49.588;12.148;2022-12-19T16:49:20;-0.40;99.90
11304;DHT22;5707;49.588;12.148;2022-12-19T16:51:49;-0.40;99.90
11304;DHT22;5707;49.588;12.148;2022-12-19T16:54:15;-0.40;99.90
11304;DHT22;5707;49.588;12.148;2022-12-19T16:56:49;-0.40;99.90
11304;DHT22;5707;49.588;12.148;2022-12-19T16:59:26;-0.40;99.90
11304;DHT22;5707;49.588;12.148;2022-12-19T17:01:55;-0.40;99.90
11304;DHT22;5707;49.588;12.148;2022-12-19T17:04:23;-0.40;99.90
11304;DHT22;5707;49.588;12.148;2022-12-19T17:06:53;-0.40;99.90
11304;DHT22;5707;49.588;12.148;2022-12-19T17:09:21;-0.50;99.90
11304;DHT22;5707;49.588;12.148;2022-12-19T17:11:50;-0.50;99.90
11304;DHT22;5707;49.588;12.148;2022-12-19T17:14:20;-0.50;99.90
11304;DHT22;5707;49.588;12.148;2022-12-19T17:16:46;-0.60;99.90
11304;DHT22;5707;49.588;12.148;2022-12-19T17:19:32;-0.60;99.90
11304;DHT22;5707;49.588;12.148;2022-12-19T17:21:58;-0.60;99.90
11304;DHT22;5707;49.588;12.148;2022-12-19T17:24:24;-0.60;99.90
11304;DHT22;5707;49.588;12.148;2022-12-19T17:26:50;-0.60;99.90
11304;DHT22;5707;49.588;12.148;2022-12-19T17:29:15;-0.60;99.90
11304;DHT22;5707;49.588;12.148;2022-12-19T17:31:41;-0.60;99.90
11304;DHT22;5707;49.588;12.148;2022-12-19T17:34:29;-0.60;99.90
11304;DHT22;5707;49.588;12.148;2022-12-19T17:37:00;-0.60;99.90
11304;DHT22;5707;49.588;12.148;2022-12-19T17:39:27;-0.60;99.90
11304;DHT22;5707;49.588;12.148;2022-12-19T17:41:59;-0.60;99.90
11304;DHT22;5707;49.588;12.148;2022-12-19T17:44:25;-0.60;99.90
11304;DHT22;5707;49.588;12.148;2022-12-19T17:46:51;-0.60;99.90
11304;DHT22;5707;49.588;12.148;2022-12-19T17:49:25;-0.60;99.90
11304;DHT22;5707;49.588;12.148;2022-12-19T17:51:51;-0.70;99.90
11304;DHT22;5707;49.588;12.148;2022-12-19T17:54:19;-0.70;99.90
11304;DHT22;5707;49.588;12.148;2022-12-19T17:56:45;-0.70;99.90